Time;durP1;ratioP1;P1;durP2;ratioP2;P2;SDS_P1;SDS_P2;PMS_P1;PMS_P2;Temp;Humidity;BMP_temperature;BMP_pressure;BME280_temperature;BME280_humidity;BME280_pressure;Samples;Min_cycle;Max_cycle;Signal;HPM_P1;HPM_P2
2023/04/06 00:01:16;;;;;;;4.87;2.60;;;2.40;98.00;;;;;;5011124;28;20836;-68
2023/04/06 00:03:43;;;;;;;3.57;2.20;;;2.30;98.00;;;;;;5012371;28;20460;-68
2023/04/06 00:06:10;;;;;;;4.50;2.97;;;2.40;98.00;;;;;;5011003;28;20470;-68
2023/04/06 00:08:38;;;;;;;11.40;2.50;;;2.30;98.00;;;;;;5011656;28;20461;-68
2023/04/06 00:11:05;;;;;;;3.87;2.50;;;2.40;98.00;;;;;;5012402;28;20485;-68
2023/04/06 00:13:35;;;;;;;7.63;2.47;;;2.50;98.00;;;;;;5012142;28;20989;-68
2023/04/06 00:16:02;;;;;;;5.13;3.20;;;2.40;98.00;;;;;;5012307;28;20463;-68
2023/04/06 00:18:33;;;;;;;5.13;3.10;;;2.50;98.00;;;;;;5012074;28;20555;-67
2023/04/06 00:21:01;;;;;;;5.57;3.30;;;2.50;98.00;;;;;;5011898;28;20999;-68
2023/04/06 00:23:28;;;;;;;5.10;2.33;;;2.50;98.00;;;;;;5012081;28;20460;-68
2023/04/06 00:26:00;;;;;;;4.17;2.87;;;2.30;98.00;;;;;;5011455;28;20464;-67
2023/04/06 00:28:28;;;;;;;6.60;3.17;;;2.10;98.00;;;;;;5012138;28;20955;-68
2023/04/06 00:30:56;;;;;;;3.97;2.50;;;2.10;98.00;;;;;;5011845;28;20548;-68
2023/04/06 00:33:24;;;;;;;5.93;3.00;;;2.20;98.00;;;;;;5011739;28;20461;-68
2023/04/06 00:35:52;;;;;;;4.10;2.60;;;2.20;98.00;;;;;;5011641;28;20463;-68
2023/04/06 00:38:20;;;;;;;2.67;2.07;;;2.10;98.00;;;;;;5011670;28;20494;-68
2023/04/06 00:40:47;;;;;;;3.73;2.47;;;2.00;98.00;;;;;;5011413;28;20880;-67
2023/04/06 00:43:15;;;;;;;4.30;3.00;;;2.00;98.00;;;;;;5011689;28;20815;-68
2023/04/06 00:45:43;;;;;;;3.77;2.80;;;1.90;98.00;;;;;;5011730;28;20543;-68
2023/04/06 00:48:10;;;;;;;2.40;2.20;;;2.10;98.00;;;;;;5011769;28;20461;-68
2023/04/06 00:50:37;;;;;;;4.27;2.60;;;2.10;98.00;;;;;;5010331;28;20460;-68
2023/04/06 00:53:06;;;;;;;4.80;2.60;;;2.10;98.00;;;;;;5011717;28;20458;-68
2023/04/06 00:55:35;;;;;;;4.83;2.60;;;2.00;98.00;;;;;;5009747;28;20963;-68
2023/04/06 00:58:05;;;;;;;4.10;2.13;;;2.10;98.00;;;;;;5011434;28;20451;-68
2023/04/06 01:00:33;;;;;;;3.80;2.30;;;2.10;98.00;;;;;;5010092;28;20586;-67
2023/04/06 01:03:00;;;;;;;4.17;2.47;;;2.00;98.00;;;;;;5011839;28;20812;-67
2023/04/06 01:05:28;;;;;;;6.43;2.97;;;1.90;98.00;;;;;;5011310;28;20951;-68
2023/04/06 01:07:55;;;;;;;5.90;2.80;;;1.70;98.00;;;;;;5011365;28;20526;-67
2023/04/06 01:10:28;;;;;;;4.20;2.73;;;1.80;98.00;;;;;;5011287;28;20955;-67
2023/04/06 01:12:56;;;;;;;2.30;2.10;;;1.80;98.00;;;;;;5011505;28;20459;-68
2023/04/06 01:15:24;;;;;;;4.43;2.50;;;1.90;98.00;;;;;;5011529;28;20461;-68
2023/04/06 01:17:51;;;;;;;2.70;1.77;;;2.00;98.00;;;;;;5011681;28;20551;-68
2023/04/06 01:20:19;;;;;;;4.50;2.70;;;1.80;98.00;;;;;;5011096;28;21001;-68
2023/04/06 01:22:48;;;;;;;3.67;2.20;;;1.70;98.00;;;;;;5011376;28;20461;-67
2023/04/06 01:25:17;;;;;;;3.80;2.30;;;1.70;98.00;;;;;;5011190;28;20473;-68
2023/04/06 01:27:44;;;;;;;4.50;2.13;;;1.70;98.00;;;;;;5010044;28;20821;-68
2023/04/06 01:30:12;;;;;;;8.17;3.47;;;1.60;98.00;;;;;;5011244;28;20498;-68
2023/04/06 01:32:39;;;;;;;3.40;2.10;;;1.60;98.00;;;;;;5011124;28;20463;-67
2023/04/06 01:35:07;;;;;;;3.57;2.53;;;1.60;98.00;;;;;;5010902;28;20448;-67
2023/04/06 01:37:35;;;;;;;2.40;2.20;;;1.70;98.00;;;;;;5012996;28;20486;-67
2023/04/06 01:40:05;;;;;;;3.50;2.50;;;1.80;98.00;;;;;;5014706;28;21005;-68
2023/04/06 01:42:32;;;;;;;4.47;2.37;;;1.90;98.00;;;;;;5014360;28;21008;-68
2023/04/06 01:44:59;;;;;;;9.60;2.77;;;1.80;98.00;;;;;;5014774;28;20459;-67
2023/04/06 01:47:26;;;;;;;4.20;2.50;;;1.60;98.00;;;;;;5014697;28;20463;-67
2023/04/06 01:49:55;;;;;;;6.60;3.60;;;1.50;98.00;;;;;;5014640;28;20455;-67
2023/04/06 01:52:22;;;;;;;2.17;2.00;;;1.60;98.00;;;;;;5015061;28;20474;-68
2023/04/06 01:54:49;;;;;;;5.97;2.50;;;1.70;98.00;;;;;;5014368;28;20859;-67
2023/04/06 01:57:18;;;;;;;6.40;2.50;;;1.40;98.00;;;;;;5014708;28;20460;-68
2023/04/06 01:59:47;;;;;;;3.43;2.37;;;1.30;98.00;;;;;;5014491;28;20490;-67
2023/04/06 02:02:14;;;;;;;2.90;2.37;;;1.30;98.00;;;;;;5013203;28;20522;-67
2023/04/06 02:04:41;;;;;;;5.23;2.90;;;1.30;98.00;;;;;;5014445;28;20459;-67
2023/04/06 02:07:11;;;;;;;3.33;2.40;;;1.20;98.00;;;;;;5014644;28;20889;-67
2023/04/06 02:09:39;;;;;;;5.83;3.53;;;1.10;98.00;;;;;;5014288;28;20476;-67
2023/04/06 02:12:07;;;;;;;6.83;3.50;;;1.10;98.00;;;;;;5014693;28;20991;-67
2023/04/06 02:14:36;;;;;;;3.90;2.13;;;1.30;98.00;;;;;;5014295;28;20464;-68
2023/04/06 02:17:11;;;;;;;4.67;3.33;;;1.40;98.00;;;;;;5014589;28;20461;-67
2023/04/06 02:19:38;;;;;;;3.30;2.87;;;1.40;98.00;;;;;;5013579;28;20462;-67
2023/04/06 02:22:06;;;;;;;9.10;3.37;;;1.40;98.00;;;;;;5013481;28;20456;-67
2023/04/06 02:24:33;;;;;;;6.07;3.23;;;1.30;98.00;;;;;;5014039;28;20549;-67
2023/04/06 02:27:00;;;;;;;5.30;2.57;;;1.20;98.00;;;;;;5014202;28;20539;-67
2023/04/06 02:29:27;;;;;;;6.80;2.60;;;1.10;98.00;;;;;;5014136;28;20470;-67
2023/04/06 02:31:56;;;;;;;4.37;2.20;;;1.00;98.00;;;;;;5014025;28;20455;-67
2023/04/06 02:34:24;;;;;;;6.10;3.43;;;1.00;98.00;;;;;;5013880;28;20980;-67
2023/04/06 02:36:51;;;;;;;2.73;2.20;;;1.00;98.00;;;;;;5013542;28;20464;-67
2023/04/06 02:39:18;;;;;;;4.50;2.37;;;0.90;98.00;;;;;;5013589;28;20958;-68
2023/04/06 02:41:46;;;;;;;4.53;2.43;;;1.00;98.00;;;;;;5013521;28;20484;-68
2023/04/06 02:44:14;;;;;;;2.43;2.23;;;1.10;98.00;;;;;;5012585;28;20463;-67
2023/04/06 02:46:41;;;;;;;2.73;1.93;;;1.30;98.00;;;;;;5013781;28;20495;-67
2023/04/06 02:49:10;;;;;;;10.83;2.73;;;1.40;98.00;;;;;;5013256;28;20542;-67
2023/04/06 02:51:37;;;;;;;3.17;2.33;;;1.40;98.00;;;;;;5013669;28;20538;-67
2023/04/06 02:54:05;;;;;;;4.20;2.60;;;1.30;98.00;;;;;;5013549;28;20463;-67
2023/04/06 02:56:32;;;;;;;3.63;2.30;;;1.20;98.00;;;;;;5013448;28;20772;-67
2023/04/06 02:58:59;;;;;;;3.90;2.50;;;1.10;98.00;;;;;;5013329;28;20542;-67
2023/04/06 03:01:27;;;;;;;6.10;2.97;;;1.20;98.00;;;;;;5013237;28;20566;-68
2023/04/06 03:03:54;;;;;;;11.53;2.30;;;0.90;98.00;;;;;;5013835;28;20451;-67
2023/04/06 03:06:23;;;;;;;4.87;2.87;;;0.80;98.00;;;;;;5013393;28;20459;-67
2023/04/06 03:08:52;;;;;;;3.77;2.00;;;0.90;98.00;;;;;;5013321;28;20466;-67
2023/04/06 03:11:21;;;;;;;5.30;2.50;;;0.80;98.00;;;;;;5012318;28;20937;-67
2023/04/06 03:13:50;;;;;;;9.67;5.07;;;0.80;98.00;;;;;;5012078;28;20613;-67
2023/04/06 03:16:17;;;;;;;10.33;3.70;;;0.60;98.00;;;;;;5013110;28;20459;-67
2023/04/06 03:18:46;;;;;;;4.67;2.70;;;0.50;98.00;;;;;;5011775;28;20469;-67
2023/04/06 03:21:15;;;;;;;4.47;2.90;;;0.50;98.00;;;;;;5011913;28;20480;-67
2023/04/06 03:23:43;;;;;;;3.70;2.80;;;0.60;98.00;;;;;;5012846;28;20467;-67
2023/04/06 03:26:11;;;;;;;3.27;1.93;;;0.80;98.00;;;;;;5013074;28;20460;-67
2023/04/06 03:28:38;;;;;;;9.13;3.17;;;0.90;98.00;;;;;;5012647;28;20471;-67
2023/04/06 03:31:05;;;;;;;5.23;2.80;;;0.90;98.00;;;;;;5012950;28;20460;-67
2023/04/06 03:33:32;;;;;;;3.03;2.20;;;0.80;98.00;;;;;;5012503;28;20458;-67
2023/04/06 03:35:59;;;;;;;3.37;2.17;;;0.60;98.00;;;;;;5012615;28;20539;-67
2023/04/06 03:38:26;;;;;;;6.30;2.67;;;0.80;98.00;;;;;;5012745;28;20471;-67
2023/04/06 03:40:55;;;;;;;5.10;2.43;;;0.70;98.00;;;;;;5012382;28;20487;-67
2023/04/06 03:43:22;;;;;;;3.63;2.70;;;0.60;98.00;;;;;;5012684;28;20458;-67
2023/04/06 03:45:49;;;;;;;6.00;3.30;;;0.60;98.00;;;;;;5012622;28;20958;-67
2023/04/06 03:48:17;;;;;;;3.43;2.70;;;0.50;98.00;;;;;;5012620;28;20460;-67
2023/04/06 03:50:44;;;;;;;4.60;2.60;;;0.50;98.00;;;;;;5011886;28;20482;-67
2023/04/06 03:53:12;;;;;;;3.13;2.20;;;0.50;98.00;;;;;;5012565;28;20462;-67
2023/04/06 03:55:39;;;;;;;3.20;2.10;;;0.60;98.00;;;;;;5011115;28;20462;-67
2023/04/06 03:58:08;;;;;;;3.03;2.57;;;0.70;98.00;;;;;;5012258;28;20459;-67
2023/04/06 04:00:35;;;;;;;5.93;3.13;;;0.60;98.00;;;;;;5011326;28;20486;-67
2023/04/06 04:03:02;;;;;;;6.10;2.40;;;0.70;98.00;;;;;;5011843;28;20499;-67
2023/04/06 04:05:29;;;;;;;6.03;3.17;;;0.60;98.00;;;;;;5012269;28;20857;-67
2023/04/06 04:07:57;;;;;;;3.30;2.17;;;0.60;98.00;;;;;;5012516;28;20455;-67
2023/04/06 04:10:24;;;;;;;3.77;2.37;;;0.50;98.00;;;;;;5012248;28;20465;-67
2023/04/06 04:12:52;;;;;;;4.33;2.60;;;0.40;98.00;;;;;;5012085;28;20823;-67
2023/04/06 04:15:20;;;;;;;3.70;2.63;;;0.40;98.00;;;;;;5010770;28;20459;-67
2023/04/06 04:17:49;;;;;;;4.00;3.07;;;0.30;98.00;;;;;;5011892;28;20476;-67
2023/04/06 04:20:16;;;;;;;4.93;3.40;;;0.40;98.00;;;;;;5012040;28;20489;-67
2023/04/06 04:22:44;;;;;;;6.67;3.13;;;0.50;98.00;;;;;;5011969;28;20467;-67
2023/04/06 04:25:12;;;;;;;3.63;2.67;;;0.40;98.00;;;;;;5011792;28;20465;-67
2023/04/06 04:27:39;;;;;;;8.73;2.83;;;0.40;98.00;;;;;;5011945;28;20962;-67
2023/04/06 04:30:08;;;;;;;3.43;2.43;;;0.20;98.00;;;;;;5010802;28;20460;-67
2023/04/06 04:32:37;;;;;;;3.93;2.70;;;0.20;98.00;;;;;;5011926;28;20456;-67
2023/04/06 04:35:05;;;;;;;4.50;2.90;;;0.20;98.00;;;;;;5012157;28;21058;-67
2023/04/06 04:37:34;;;;;;;3.93;2.40;;;0.30;98.00;;;;;;5012007;28;20459;-67
2023/04/06 04:40:01;;;;;;;2.20;1.90;;;0.40;98.00;;;;;;5012625;28;20470;-67
2023/04/06 04:42:28;;;;;;;3.83;2.63;;;0.40;98.00;;;;;;5011853;28;20570;-67
2023/04/06 04:44:57;;;;;;;4.80;3.10;;;0.40;98.00;;;;;;5012488;28;20471;-67
2023/04/06 04:47:24;;;;;;;3.43;2.17;;;0.40;98.00;;;;;;5010433;28;20451;-67
2023/04/06 04:49:53;;;;;;;3.00;2.50;;;0.40;98.00;;;;;;5011704;28;20455;-67
2023/04/06 04:54:48;;;;;;;5.70;2.83;;;0.30;98.00;;;;;;5029512;28;20480;-69
2023/04/06 04:57:16;;;;;;;4.77;2.80;;;0.10;98.00;;;;;;5031266;28;20467;-69
2023/04/06 04:59:44;;;;;;;4.33;2.13;;;0.10;98.00;;;;;;5031412;28;20473;-69
2023/04/06 05:02:11;;;;;;;4.10;2.60;;;0.20;98.00;;;;;;5031323;28;20489;-69
2023/04/06 05:04:39;;;;;;;3.20;2.43;;;0.00;98.00;;;;;;5031051;28;20459;-69
2023/04/06 05:07:08;;;;;;;3.77;2.70;;;0.00;98.00;;;;;;5031159;28;20459;-68
2023/04/06 05:09:36;;;;;;;4.43;2.30;;;0.10;98.00;;;;;;5031327;28;20450;-69
2023/04/06 05:12:03;;;;;;;3.73;2.30;;;0.00;98.00;;;;;;5032307;28;20484;-69
2023/04/06 05:14:30;;;;;;;3.37;2.70;;;-0.10;98.00;;;;;;5035058;28;20461;-69
2023/04/06 05:16:59;;;;;;;5.07;3.30;;;0.10;98.00;;;;;;5035035;28;20461;-69
2023/04/06 05:19:26;;;;;;;3.37;2.70;;;0.20;98.00;;;;;;5035061;28;20462;-70
2023/04/06 05:21:53;;;;;;;5.40;3.27;;;0.10;98.00;;;;;;5035168;28;20486;-69
2023/04/06 05:24:32;;;;;;;4.13;2.40;;;0.10;98.00;;;;;;5034824;28;20454;-69
2023/04/06 05:27:00;;;;;;;4.30;3.40;;;0.10;98.00;;;;;;5034983;28;20477;-69
2023/04/06 05:29:27;;;;;;;3.90;2.47;;;0.20;98.00;;;;;;5034945;28;20505;-69
2023/04/06 05:31:54;;;;;;;9.30;3.57;;;0.20;98.00;;;;;;5034603;28;20472;-70
2023/04/06 05:34:21;;;;;;;3.20;2.47;;;0.30;98.00;;;;;;5034691;28;20461;-69
2023/04/06 05:36:48;;;;;;;5.67;3.47;;;0.40;98.00;;;;;;5034847;28;20458;-69
2023/04/06 05:39:16;;;;;;;2.83;2.10;;;0.40;98.00;;;;;;5034642;28;20467;-68
2023/04/06 05:41:45;;;;;;;2.90;2.10;;;0.60;98.00;;;;;;5034556;28;20497;-69
2023/04/06 05:44:12;;;;;;;7.17;2.33;;;0.60;98.00;;;;;;5034477;28;20450;-68
2023/04/06 05:46:39;;;;;;;2.90;2.30;;;0.70;98.00;;;;;;5034466;28;20454;-68
2023/04/06 05:49:06;;;;;;;2.80;2.00;;;0.60;98.00;;;;;;5034607;28;20466;-69
2023/04/06 05:51:34;;;;;;;5.20;2.77;;;0.70;98.00;;;;;;5034529;28;20462;-69
2023/04/06 05:54:01;;;;;;;5.43;2.40;;;0.70;98.00;;;;;;5034294;28;20549;-67
2023/04/06 05:56:30;;;;;;;5.47;3.20;;;0.80;98.00;;;;;;5034599;28;20463;-68
2023/04/06 05:58:58;;;;;;;3.50;2.40;;;0.80;98.00;;;;;;5034728;28;20512;-68
2023/04/06 06:01:25;;;;;;;2.70;2.10;;;0.80;98.00;;;;;;5033019;28;20481;-63
2023/04/06 06:03:55;;;;;;;3.50;2.67;;;0.90;98.00;;;;;;5032935;28;20458;-63
2023/04/06 06:06:22;;;;;;;3.93;2.80;;;0.90;98.00;;;;;;5034380;28;20553;-63
2023/04/06 06:08:49;;;;;;;6.30;4.30;;;0.80;98.00;;;;;;5033617;28;20473;-63
2023/04/06 06:11:19;;;;;;;5.40;2.83;;;0.80;98.00;;;;;;5034168;28;20466;-63
2023/04/06 06:13:46;;;;;;;4.23;2.90;;;0.60;98.00;;;;;;5034096;28;20466;-64
2023/04/06 06:16:15;;;;;;;4.23;3.10;;;0.60;98.00;;;;;;5034265;28;20505;-63
2023/04/06 06:18:42;;;;;;;2.20;1.90;;;0.70;98.00;;;;;;5033837;28;20461;-63
2023/04/06 06:21:11;;;;;;;3.17;2.40;;;0.80;98.00;;;;;;5033916;28;20488;-63
2023/04/06 06:23:39;;;;;;;6.73;3.20;;;1.00;98.00;;;;;;5032999;28;20534;-63
2023/04/06 06:26:07;;;;;;;4.93;3.03;;;1.30;98.00;;;;;;5033795;28;20494;-63
2023/04/06 06:28:34;;;;;;;4.93;3.00;;;1.40;98.00;;;;;;5033797;28;20607;-63
2023/04/06 06:31:02;;;;;;;6.23;2.83;;;1.50;98.00;;;;;;5033584;28;20461;-63
2023/04/06 06:33:30;;;;;;;3.67;2.47;;;1.70;98.00;;;;;;5032373;28;20537;-63
2023/04/06 06:35:57;;;;;;;3.70;2.57;;;1.90;98.00;;;;;;5033498;28;20960;-63
2023/04/06 06:38:26;;;;;;;2.83;2.63;;;2.00;98.00;;;;;;5033586;28;20454;-63
2023/04/06 06:40:54;;;;;;;5.80;3.30;;;2.10;98.00;;;;;;5033386;28;20457;-63
2023/04/06 06:43:22;;;;;;;3.53;2.33;;;2.20;98.00;;;;;;5033464;28;20490;-63
2023/04/06 06:45:49;;;;;;;3.20;2.67;;;2.20;98.00;;;;;;5033344;28;20974;-63
2023/04/06 06:48:16;;;;;;;4.63;3.10;;;2.20;98.00;;;;;;5033522;28;20454;-63
2023/04/06 06:50:45;;;;;;;4.10;2.60;;;2.10;98.00;;;;;;5033527;28;20459;-63
2023/04/06 06:53:12;;;;;;;3.83;3.00;;;2.10;98.00;;;;;;5033232;28;20478;-63
2023/04/06 06:55:39;;;;;;;3.47;2.70;;;2.20;98.00;;;;;;5033527;28;20542;-63
2023/04/06 06:58:06;;;;;;;3.43;2.43;;;2.40;98.00;;;;;;5033287;28;20460;-63
2023/04/06 07:00:34;;;;;;;4.77;2.93;;;2.40;98.00;;;;;;5033005;28;20459;-63
2023/04/06 07:03:01;;;;;;;4.73;2.90;;;2.50;98.00;;;;;;5032923;28;20511;-64
2023/04/06 07:05:28;;;;;;;5.50;3.80;;;2.70;98.00;;;;;;5033189;28;20816;-63
2023/04/06 07:07:57;;;;;;;6.70;3.60;;;2.80;98.00;;;;;;5033167;28;20460;-63
2023/04/06 07:10:25;;;;;;;7.17;3.00;;;2.80;98.00;;;;;;5033003;28;20464;-63
2023/04/06 07:12:52;;;;;;;5.53;3.07;;;3.10;98.00;;;;;;5032963;28;20645;-63
2023/04/06 07:15:20;;;;;;;4.17;3.07;;;3.30;98.00;;;;;;5031678;28;20820;-64
2023/04/06 07:17:47;;;;;;;3.57;2.70;;;3.30;98.00;;;;;;5032848;28;20462;-63
2023/04/06 07:20:15;;;;;;;6.37;2.90;;;3.40;98.00;;;;;;5032691;28;20460;-64
2023/04/06 07:22:44;;;;;;;4.73;2.60;;;3.50;98.00;;;;;;5032681;28;20848;-63
2023/04/06 07:25:13;;;;;;;9.53;3.47;;;3.60;98.00;;;;;;5032586;28;20469;-63
2023/04/06 07:27:40;;;;;;;5.10;2.90;;;3.70;98.00;;;;;;5032648;28;20465;-63
2023/04/06 07:30:09;;;;;;;12.40;4.13;;;3.80;98.00;;;;;;5032497;28;20461;-63
2023/04/06 07:32:36;;;;;;;5.70;3.30;;;4.00;98.00;;;;;;5031665;28;20462;-64
2023/04/06 07:35:04;;;;;;;6.47;3.77;;;4.10;98.00;;;;;;5032425;28;20464;-63
2023/04/06 07:37:31;;;;;;;6.13;3.30;;;4.10;98.00;;;;;;5032677;28;20457;-63
2023/04/06 07:39:58;;;;;;;9.13;3.70;;;4.30;98.00;;;;;;5032439;28;20562;-63
2023/04/06 07:42:27;;;;;;;5.83;3.50;;;4.40;98.00;;;;;;5031351;28;20854;-64
2023/04/06 07:44:54;;;;;;;4.03;2.80;;;4.40;98.00;;;;;;5032636;28;20463;-64
2023/04/06 07:47:22;;;;;;;10.10;3.63;;;4.50;98.00;;;;;;5032489;28;20457;-64
2023/04/06 07:49:49;;;;;;;7.03;3.67;;;4.70;98.00;;;;;;5032013;28;20468;-63
2023/04/06 07:52:17;;;;;;;6.57;3.60;;;4.90;98.00;;;;;;5033117;28;20955;-63
2023/04/06 07:54:44;;;;;;;7.47;3.80;;;5.10;98.00;;;;;;5031521;28;20552;-63
2023/04/06 07:57:11;;;;;;;7.13;3.90;;;5.30;98.00;;;;;;5032827;28;20964;-64
2023/04/06 07:59:40;;;;;;;7.23;3.17;;;5.40;98.00;;;;;;5032266;28;20454;-63
2023/04/06 08:02:07;;;;;;;9.37;3.30;;;5.60;98.00;;;;;;5032309;28;20490;-63
2023/04/06 08:04:35;;;;;;;6.07;3.20;;;5.70;98.00;;;;;;5032257;28;20810;-63
2023/04/06 08:07:03;;;;;;;8.53;4.20;;;5.90;98.00;;;;;;5032311;28;20462;-63
2023/04/06 08:09:30;;;;;;;12.07;3.50;;;6.10;98.00;;;;;;5031298;28;20459;-63
2023/04/06 08:11:58;;;;;;;11.07;4.33;;;6.30;98.00;;;;;;5032366;28;20460;-63
2023/04/06 08:14:25;;;;;;;9.30;4.70;;;6.50;98.00;;;;;;5032024;28;20456;-63
2023/04/06 08:16:54;;;;;;;8.87;3.67;;;6.60;98.00;;;;;;5031654;28;20465;-63
2023/04/06 08:19:23;;;;;;;9.80;4.27;;;6.80;98.00;;;;;;5031716;28;20461;-63
2023/04/06 08:21:51;;;;;;;8.47;4.27;;;7.00;98.00;;;;;;5031655;28;20483;-63
2023/04/06 08:24:18;;;;;;;9.20;4.27;;;7.10;98.00;;;;;;5031908;28;20467;-64
2023/04/06 08:26:46;;;;;;;7.10;3.70;;;7.30;98.00;;;;;;5031538;28;20829;-64
2023/04/06 08:29:13;;;;;;;7.67;4.07;;;7.50;98.00;;;;;;5031576;28;20473;-64
2023/04/06 08:31:41;;;;;;;7.80;4.27;;;7.60;98.00;;;;;;5031810;28;20541;-63
2023/04/06 08:34:11;;;;;;;9.70;4.27;;;7.70;98.00;;;;;;5032360;28;20464;-63
2023/04/06 08:36:38;;;;;;;8.87;4.37;;;7.70;98.00;;;;;;5032262;28;20462;-64
2023/04/06 08:39:05;;;;;;;8.33;3.50;;;7.90;98.00;;;;;;5032358;28;20456;-64
2023/04/06 08:41:33;;;;;;;10.80;4.30;;;8.20;98.00;;;;;;5032287;28;20458;-64
2023/04/06 08:44:01;;;;;;;13.37;4.13;;;8.30;98.00;;;;;;5014626;28;20458;-64
2023/04/06 08:46:33;;;;;;;5.43;3.40;;;8.50;98.00;;;;;;5031569;28;20459;-64
2023/04/06 08:49:01;;;;;;;5.63;2.93;;;8.80;98.00;;;;;;5032133;28;20482;-63
2023/04/06 08:51:31;;;;;;;11.83;4.90;;;9.80;98.00;;;;;;5032281;28;20465;-62
2023/04/06 08:54:00;;;;;;;9.53;4.47;;;10.30;96.80;;;;;;5032183;28;20463;-63
2023/04/06 08:56:29;;;;;;;6.30;4.00;;;10.40;94.80;;;;;;5032190;28;20804;-62
2023/04/06 08:58:57;;;;;;;9.63;4.47;;;10.40;93.30;;;;;;5031138;28;20901;-63
2023/04/06 09:01:26;;;;;;;10.30;4.93;;;10.40;93.60;;;;;;5031751;28;20475;-63
2023/04/06 09:03:57;;;;;;;18.60;5.40;;;10.40;93.80;;;;;;5031805;28;20490;-63
2023/04/06 09:06:27;;;;;;;9.40;4.17;;;10.30;92.90;;;;;;5031726;28;20463;-62
2023/04/06 09:08:56;;;;;;;7.73;4.20;;;10.40;94.70;;;;;;5031661;28;20513;-63
2023/04/06 09:11:23;;;;;;;11.13;4.33;;;10.40;91.70;;;;;;5031396;28;20564;-63
2023/04/06 09:13:53;;;;;;;11.33;4.17;;;10.50;92.30;;;;;;5030364;28;20454;-63
2023/04/06 09:16:21;;;;;;;8.30;4.10;;;10.60;91.50;;;;;;5031705;28;20484;-63
2023/04/06 09:18:49;;;;;;;10.17;5.30;;;10.70;93.20;;;;;;5031743;28;20462;-63
2023/04/06 09:21:19;;;;;;;10.10;4.23;;;10.90;93.50;;;;;;5031725;28;20466;-64
2023/04/06 09:23:48;;;;;;;8.57;3.90;;;11.00;91.10;;;;;;5031697;28;20489;-63
2023/04/06 09:26:19;;;;;;;14.80;5.10;;;11.20;92.20;;;;;;5031598;28;21010;-63
2023/04/06 09:28:48;;;;;;;9.73;4.13;;;11.30;87.20;;;;;;5031625;28;20503;-63
2023/04/06 09:31:25;;;;;;;10.77;4.47;;;11.40;87.70;;;;;;5031617;28;20462;-63
2023/04/06 09:33:53;;;;;;;7.87;4.30;;;11.40;87.90;;;;;;5031670;28;20465;-63
2023/04/06 09:36:21;;;;;;;9.83;4.20;;;11.60;88.70;;;;;;5031613;28;20513;-63
2023/04/06 09:38:56;;;;;;;12.83;4.00;;;11.70;87.30;;;;;;5031644;28;20485;-63
2023/04/06 09:41:26;;;;;;;9.80;4.10;;;11.80;87.20;;;;;;5031686;28;20462;-63
2023/04/06 09:44:04;;;;;;;9.03;4.07;;;12.00;87.40;;;;;;5031535;28;20560;-63
2023/04/06 09:46:33;;;;;;;11.03;3.70;;;12.20;87.00;;;;;;5030509;28;20471;-63
2023/04/06 09:49:02;;;;;;;11.50;4.03;;;12.10;87.20;;;;;;5031650;28;20518;-64
2023/04/06 09:51:32;;;;;;;10.50;3.93;;;12.00;84.40;;;;;;5031735;28;20983;-63
2023/04/06 09:54:02;;;;;;;11.33;4.30;;;12.10;85.30;;;;;;5031706;28;20534;-63
2023/04/06 09:56:45;;;;;;;6.87;3.63;;;12.30;82.20;;;;;;5031423;28;20493;-63
2023/04/06 09:59:20;;;;;;;8.30;3.23;;;12.50;83.20;;;;;;5032529;28;20463;-64
2023/04/06 10:01:49;;;;;;;10.07;4.50;;;13.00;96.10;;;;;;5035012;28;20457;-65
2023/04/06 10:04:30;;;;;;;6.57;3.33;;;13.40;78.60;;;;;;5034709;28;20963;-63
2023/04/06 10:06:58;;;;;;;5.77;2.60;;;13.60;79.00;;;;;;5033993;28;20457;-63
2023/04/06 10:09:35;;;;;;;6.83;2.93;;;14.00;92.30;;;;;;5033546;28;20971;-63
2023/04/06 10:12:04;;;;;;;7.93;3.73;;;14.80;92.70;;;;;;5034764;28;20461;-64
2023/04/06 10:14:34;;;;;;;7.50;4.10;;;15.40;78.00;;;;;;5034526;28;20461;-64
2023/04/06 10:17:03;;;;;;;9.00;4.37;;;15.40;77.30;;;;;;5034451;28;20465;-63
2023/04/06 10:19:38;;;;;;;9.10;3.93;;;15.10;72.40;;;;;;5034534;28;20469;-64
2023/04/06 10:22:08;;;;;;;9.50;3.97;;;14.90;76.00;;;;;;5034552;28;20472;-64
2023/04/06 10:24:37;;;;;;;8.80;3.97;;;14.80;74.90;;;;;;5032900;28;20492;-64
2023/04/06 10:27:09;;;;;;;11.43;3.70;;;14.80;74.90;;;;;;5034758;28;20524;-63
2023/04/06 10:29:46;;;;;;;8.57;3.90;;;14.80;76.50;;;;;;5033656;28;21003;-64
2023/04/06 10:32:13;;;;;;;9.30;4.40;;;14.70;72.80;;;;;;5034570;28;20463;-64
2023/04/06 10:34:41;;;;;;;9.13;4.10;;;14.50;74.20;;;;;;5034227;28;20465;-63
2023/04/06 10:37:15;;;;;;;8.60;4.63;;;14.50;76.90;;;;;;5034536;28;20452;-63
2023/04/06 10:39:49;;;;;;;8.00;3.80;;;14.70;77.50;;;;;;5034272;28;20982;-64
2023/04/06 10:42:17;;;;;;;11.17;4.00;;;14.80;76.20;;;;;;5034286;28;20462;-64
2023/04/06 10:44:45;;;;;;;6.67;3.80;;;14.90;73.80;;;;;;5033943;28;20462;-63
2023/04/06 10:47:18;;;;;;;7.40;3.80;;;14.90;71.50;;;;;;5034111;28;20472;-64
2023/04/06 10:49:46;;;;;;;7.47;3.80;;;14.90;72.40;;;;;;5034280;28;21000;-64
2023/04/06 10:52:14;;;;;;;6.87;4.07;;;15.10;76.50;;;;;;5034235;28;20464;-64
2023/04/06 10:54:44;;;;;;;9.73;4.50;;;14.80;73.60;;;;;;5033003;28;20580;-64
2023/04/06 10:57:13;;;;;;;8.90;4.33;;;14.50;74.20;;;;;;5033949;28;20453;-64
2023/04/06 10:59:45;;;;;;;6.93;3.77;;;14.50;75.30;;;;;;5033727;28;20470;-64
2023/04/06 11:02:22;;;;;;;10.23;4.07;;;14.80;74.30;;;;;;5033980;28;20458;-64
2023/04/06 11:04:59;;;;;;;6.77;3.47;;;15.10;73.40;;;;;;5032501;28;20464;-64
2023/04/06 11:07:30;;;;;;;4.70;2.77;;;15.30;71.80;;;;;;5033818;28;20466;-64
2023/04/06 11:09:58;;;;;;;8.03;3.50;;;15.40;74.30;;;;;;5032061;28;20471;-64
2023/04/06 11:12:26;;;;;;;4.93;2.87;;;15.40;67.80;;;;;;5033672;28;20994;-64
2023/04/06 11:15:05;;;;;;;7.47;3.50;;;15.70;69.80;;;;;;5032582;28;20458;-64
2023/04/06 11:17:33;;;;;;;10.07;4.10;;;16.10;71.20;;;;;;5033644;28;20477;-64
2023/04/06 11:20:01;;;;;;;5.03;3.27;;;16.50;67.60;;;;;;5033338;28;20465;-64
2023/04/06 11:22:28;;;;;;;7.13;3.20;;;16.70;68.30;;;;;;5033308;28;20455;-64
2023/04/06 11:25:09;;;;;;;6.37;3.47;;;16.90;67.80;;;;;;5033429;28;20869;-64
2023/04/06 11:27:36;;;;;;;5.80;2.90;;;16.90;66.00;;;;;;5033470;28;20458;-64
2023/04/06 11:30:07;;;;;;;6.63;3.63;;;17.10;63.50;;;;;;5033300;28;20892;-64
2023/04/06 11:32:41;;;;;;;5.40;3.10;;;17.20;62.60;;;;;;5033307;28;20549;-64
2023/04/06 11:35:13;;;;;;;10.60;4.20;;;17.60;63.50;;;;;;5033442;28;20873;-64
2023/04/06 11:37:40;;;;;;;6.80;3.60;;;17.90;63.50;;;;;;5033549;28;20875;-64
2023/04/06 11:40:10;;;;;;;5.60;3.30;;;17.90;60.10;;;;;;5033291;28;20455;-64
2023/04/06 11:42:37;;;;;;;7.03;3.47;;;17.80;59.70;;;;;;5033378;28;20516;-64
2023/04/06 11:45:09;;;;;;;7.67;3.77;;;17.70;59.70;;;;;;5032948;28;20454;-64
2023/04/06 11:47:38;;;;;;;5.37;3.33;;;18.00;60.90;;;;;;5033262;28;20469;-64
2023/04/06 11:50:09;;;;;;;7.33;3.53;;;18.20;59.10;;;;;;5033321;28;20450;-64
2023/04/06 11:52:37;;;;;;;7.70;3.50;;;17.90;60.40;;;;;;5032979;28;20462;-64
2023/04/06 11:55:16;;;;;;;7.90;3.00;;;17.80;57.30;;;;;;5031204;28;20462;-65
2023/04/06 11:57:44;;;;;;;6.60;3.37;;;18.00;57.90;;;;;;5033149;28;20455;-65
2023/04/06 12:00:15;;;;;;;4.63;3.00;;;18.30;60.70;;;;;;5032374;28;20457;-64
2023/04/06 12:02:47;;;;;;;6.20;3.10;;;18.30;61.40;;;;;;5032543;28;20482;-63
2023/04/06 12:05:14;;;;;;;6.50;3.30;;;18.20;57.50;;;;;;5032705;28;20455;-64
2023/04/06 12:07:41;;;;;;;7.20;3.00;;;17.80;56.80;;;;;;5032549;28;20455;-64
2023/04/06 12:10:09;;;;;;;6.10;3.33;;;17.90;58.40;;;;;;5032628;28;20779;-64
2023/04/06 12:12:38;;;;;;;7.73;3.40;;;17.90;59.80;;;;;;5031303;28;20803;-63
2023/04/06 12:15:06;;;;;;;5.60;2.97;;;18.00;59.00;;;;;;5032464;28;20459;-64
2023/04/06 12:17:34;;;;;;;6.07;3.10;;;18.20;59.70;;;;;;5032656;28;20459;-64
2023/04/06 12:20:02;;;;;;;6.20;3.23;;;18.40;62.30;;;;;;5032470;28;20453;-64
2023/04/06 12:22:30;;;;;;;6.60;3.47;;;18.70;61.60;;;;;;5031773;28;20538;-64
2023/04/06 12:24:57;;;;;;;6.47;3.60;;;18.80;57.50;;;;;;5032196;28;20455;-64
2023/04/06 12:27:24;;;;;;;4.50;2.63;;;19.10;68.20;;;;;;5031236;28;20458;-65
2023/04/06 12:29:52;;;;;;;5.97;3.60;;;19.40;68.60;;;;;;5032273;28;20817;-65
2023/04/06 12:32:19;;;;;;;5.13;2.70;;;19.80;63.10;;;;;;5032214;28;20458;-65
2023/04/06 12:34:48;;;;;;;7.90;2.97;;;20.30;70.50;;;;;;5032111;28;20459;-68
2023/04/06 12:37:16;;;;;;;4.97;2.70;;;20.50;62.00;;;;;;5031043;28;20465;-65
2023/04/06 12:39:44;;;;;;;6.20;3.20;;;20.10;66.20;;;;;;5031779;28;20814;-66
2023/04/06 12:42:12;;;;;;;7.00;3.60;;;20.20;64.30;;;;;;5031631;28;20593;-63
2023/04/06 12:44:39;;;;;;;6.37;3.50;;;20.30;58.90;;;;;;5031147;28;20569;-63
2023/04/06 12:47:07;;;;;;;8.10;3.57;;;20.00;58.00;;;;;;5031662;28;20458;-64
2023/04/06 12:49:35;;;;;;;5.80;3.20;;;19.70;55.80;;;;;;5031459;28;20597;-63
2023/04/06 12:52:05;;;;;;;4.40;2.90;;;19.60;64.40;;;;;;5031454;28;20477;-62
2023/04/06 12:54:35;;;;;;;8.90;3.40;;;19.60;55.30;;;;;;5031095;28;20467;-62
2023/04/06 12:57:04;;;;;;;5.93;3.00;;;19.90;57.20;;;;;;5031314;28;20941;-62
2023/04/06 12:59:35;;;;;;;7.67;3.33;;;20.10;60.00;;;;;;5031137;28;20466;-62
2023/04/06 13:02:02;;;;;;;6.23;3.63;;;20.00;55.50;;;;;;5031335;28;20461;-63